createdAt,value
2023-04-16T00:02:09.233Z,23
2023-04-16T00:08:03.805Z,22.9
2023-04-16T00:13:54.514Z,22.7
2023-04-16T00:19:31.610Z,22.4
2023-04-16T00:25:22.955Z,22.1
2023-04-16T00:31:14.165Z,22.6
2023-04-16T00:36:50.330Z,24.7
2023-04-16T00:42:26.836Z,23.1
2023-04-16T00:48:18.827Z,23.1
2023-04-16T00:53:55.842Z,23
2023-04-16T00:59:31.926Z,22.8
2023-04-16T01:04:55.054Z,22.6
2023-04-16T01:10:31.755Z,22.3
2023-04-16T01:16:23.363Z,21.9
2023-04-16T01:21:59.621Z,22.6
2023-04-16T01:27:35.552Z,24.9
2023-04-16T01:32:57.032Z,23.1
2023-04-16T01:38:48.330Z,23.1
2023-04-16T01:44:24.128Z,23.1
2023-04-16T01:50:16.599Z,22.8
2023-04-16T01:55:52.160Z,22.6
2023-04-16T02:01:44.393Z,22.3
2023-04-16T02:07:37.148Z,21.9
2023-04-16T02:12:57.538Z,22.6
2023-04-16T02:18:49.750Z,24.8
2023-04-16T02:24:40.909Z,23.1
2023-04-16T02:30:31.588Z,23.1
2023-04-16T02:36:23.376Z,23
2023-04-16T02:42:14.858Z,22.8
2023-04-16T02:48:07.057Z,22.5
2023-04-16T02:53:58.473Z,22.2
2023-04-16T02:59:49.746Z,21.8
2023-04-16T03:05:26.286Z,23.2
2023-04-16T03:11:17.856Z,25.4
2023-04-16T03:16:54.173Z,23.1
2023-04-16T03:22:46.175Z,23.1
2023-04-16T03:28:37.897Z,23
2023-04-16T03:34:30.108Z,22.8
2023-04-16T03:40:21.306Z,22.4
2023-04-16T03:45:57.255Z,22.1
2023-04-16T03:51:33.945Z,21.8
2023-04-16T03:57:09.794Z,23.2
2023-04-16T04:03:02.276Z,25.4
2023-04-16T04:08:40.534Z,23
2023-04-16T04:14:32.036Z,23.1
2023-04-16T04:20:34.177Z,23
2023-04-16T04:26:26.146Z,22.8
2023-04-16T04:31:46.426Z,22.4
2023-04-16T04:37:38.451Z,22.1
2023-04-16T04:43:29.741Z,21.8
2023-04-16T04:49:23.331Z,23.8
2023-04-16T04:55:14.444Z,24.1
2023-04-16T05:00:56.074Z,23.1
2023-04-16T05:06:48.204Z,23.1
2023-04-16T05:12:39.893Z,22.9
2023-04-16T05:18:16.932Z,22.6
2023-04-16T05:23:53.220Z,22.3
2023-04-16T05:29:45.348Z,22
2023-04-16T05:35:38.032Z,22.5
2023-04-16T05:41:29.063Z,24.8
2023-04-16T05:47:23.831Z,23.3
2023-04-16T05:53:00.157Z,23.3
2023-04-16T05:58:51.192Z,23.1
2023-04-16T06:04:44.504Z,22.8
2023-04-16T06:10:21.517Z,22.6
2023-04-16T06:15:43.866Z,22.3
2023-04-16T06:21:35.420Z,21.9
2023-04-16T06:27:29.584Z,21.6
2023-04-16T06:33:16.788Z,23.9
2023-04-16T06:39:08.464Z,23.8
2023-04-16T06:45:00.540Z,23.2
2023-04-16T06:50:35.994Z,23.1
2023-04-16T06:56:13.146Z,22.9
2023-04-16T07:01:49.781Z,22.6
2023-04-16T07:07:42.900Z,22.3
2023-04-16T07:13:34.600Z,22.1
2023-04-16T07:19:27.642Z,21.8
2023-04-16T07:25:18.619Z,23.5
2023-04-16T07:31:09.524Z,24.4
2023-04-16T07:36:31.313Z,23.1
2023-04-16T07:42:23.883Z,23
2023-04-16T07:48:28.572Z,22.8
2023-04-16T07:54:19.834Z,22.6
2023-04-16T08:00:11.029Z,22.3
2023-04-16T08:05:50.277Z,22
2023-04-16T08:11:42.446Z,21.7
2023-04-16T08:17:33.903Z,23.6
2023-04-16T08:23:26.085Z,23.9
2023-04-16T08:29:30.651Z,23
2023-04-16T08:35:22.910Z,22.9
2023-04-16T08:41:14.778Z,22.8
2023-04-16T08:47:06.680Z,22.5
2023-04-16T08:52:43.219Z,22.2
2023-04-16T08:58:35.196Z,21.9
2023-04-16T09:04:29.470Z,23.3
2023-04-16T09:10:20.534Z,24.4
2023-04-16T09:16:12.088Z,22.9
2023-04-16T09:22:04.481Z,22.9
2023-04-16T09:27:42.540Z,22.8
2023-04-16T09:33:35.104Z,22.6
2023-04-16T09:39:12.956Z,22.3
2023-04-16T09:45:05.859Z,21.9
2023-04-16T09:50:46.612Z,23.6
2023-04-16T09:56:38.166Z,23.8
2023-04-16T10:02:50.785Z,22.9
2023-04-16T10:08:44.453Z,22.9
2023-04-16T10:14:36.017Z,22.8
2023-04-16T10:20:27.457Z,22.6
2023-04-16T10:26:19.561Z,22.3
2023-04-16T10:32:11.942Z,21.9
2023-04-16T10:38:00.908Z,21.6
2023-04-16T10:43:54.340Z,21.4
2023-04-16T10:49:57.060Z,21.1
2023-04-16T10:55:48.618Z,20.8
2023-04-16T11:01:26.089Z,20.5
2023-04-16T11:07:20.297Z,20.3
2023-04-16T11:13:20.084Z,20.1
2023-04-16T11:19:25.348Z,19.9
2023-04-16T11:25:22.862Z,19.6
2023-04-16T11:31:13.518Z,19.4
2023-04-16T11:37:04.909Z,19.3
2023-04-16T11:42:57.248Z,19.1
2023-04-16T11:49:01.448Z,18.9
2023-04-16T11:54:37.059Z,18.8
2023-04-16T12:00:58.110Z,18.6
2023-04-16T12:06:50.897Z,18.5
2023-04-16T12:12:42.803Z,18.4
2023-04-16T12:18:19.033Z,18.3
2023-04-16T12:23:54.720Z,18.1
2023-04-16T12:29:33.263Z,18.1
2023-04-16T12:35:38.992Z,17.9
2023-04-16T12:41:29.097Z,17.8
2023-04-16T12:47:20.674Z,17.8
2023-04-16T12:53:13.937Z,17.7
2023-04-16T12:59:05.784Z,17.6
2023-04-16T13:05:00.262Z,17.5
2023-04-16T13:10:52.735Z,17.4
2023-04-16T13:16:44.406Z,17.4
2023-04-16T13:22:37.091Z,17.3
2023-04-16T13:28:29.440Z,17.3
2023-04-16T13:34:24.153Z,17.2
2023-04-16T13:40:03.396Z,17.1
2023-04-16T13:45:40.017Z,17.1
2023-04-16T13:57:09.341Z,16.9
2023-04-16T14:02:46.545Z,16.9
2023-04-16T14:08:07.580Z,16.9
2023-04-16T14:13:13.105Z,16.8
2023-04-16T14:18:34.334Z,16.8
2023-04-16T14:24:25.406Z,16.8
2023-04-16T14:30:17.304Z,16.8
2023-04-16T14:36:09.651Z,16.7
2023-04-16T14:41:46.105Z,16.6
2023-04-16T14:47:37.408Z,16.6
2023-04-16T19:00:23.399Z,16.1
2023-04-16T19:06:00.122Z,16.1
2023-04-16T19:11:50.581Z,16.1
2023-04-16T19:17:30.073Z,16.1
2023-04-16T19:23:05.117Z,16
2023-04-16T19:28:58.141Z,16
2023-04-16T19:34:51.830Z,16
2023-04-16T19:40:43.204Z,16
2023-04-16T19:46:33.608Z,16
2023-04-16T19:52:26.018Z,16
2023-04-16T19:58:16.777Z,16
2023-04-16T20:04:08.238Z,15.9
2023-04-16T20:10:00.875Z,15.9
2023-04-16T20:15:51.253Z,15.9
2023-04-16T20:21:48.169Z,21.6
2023-04-16T20:27:40.873Z,24.4
2023-04-16T20:33:34.285Z,26.4
2023-04-16T20:39:27.394Z,22.7
2023-04-16T20:45:20.051Z,24.1
2023-04-16T20:50:56.514Z,26.3
2023-04-16T20:56:47.160Z,23.1
2023-04-16T21:02:41.786Z,22.9
2023-04-16T21:08:34.303Z,23.9
2023-04-16T21:14:09.070Z,25.9
2023-04-16T21:19:30.859Z,23.5
2023-04-16T21:25:06.589Z,23.1
2023-04-16T21:30:43.106Z,23.2
2023-04-16T21:36:35.382Z,23.8
2023-04-16T21:41:55.867Z,25.9
2023-04-16T21:47:32.558Z,23.8
2023-04-16T21:53:25.729Z,23.3
2023-04-16T21:59:01.964Z,23.4
2023-04-16T22:04:55.404Z,23.3
2023-04-16T22:11:05.365Z,25.3
2023-04-16T22:17:12.082Z,23.9
2023-04-16T22:23:03.063Z,23.4
2023-04-16T22:28:55.587Z,23.4
2023-04-16T22:34:46.260Z,23.3
2023-04-16T22:40:37.359Z,24.9
2023-04-16T22:46:30.044Z,24.9
2023-04-16T22:52:20.824Z,23.4
2023-04-16T22:57:56.113Z,23.6
2023-04-16T23:03:49.971Z,23.5
2023-04-16T23:09:41.132Z,23.8
2023-04-16T23:15:16.683Z,26.1
2023-04-16T23:20:38.687Z,23.8
2023-04-16T23:25:59.323Z,23.6
2023-04-16T23:31:35.011Z,23.6
2023-04-16T23:37:27.418Z,23.4
2023-04-16T23:43:19.019Z,23.8
2023-04-16T23:48:39.492Z,26.1
2023-04-16T23:54:16.689Z,23.9
2023-04-16T23:59:52.869Z,23.6
